sensor_id;sensor_type;location;lat;lon;timestamp;temperature;humidity
14099;DHT22;7126;48.458;7.930;2022-08-20T00:01:19;20.10;99.90
14099;DHT22;7126;48.458;7.930;2022-08-20T00:03:44;20.10;99.90
14099;DHT22;7126;48.458;7.930;2022-08-20T00:06:17;20.10;99.90
14099;DHT22;7126;48.458;7.930;2022-08-20T00:08:43;20.20;99.90
14099;DHT22;7126;48.458;7.930;2022-08-20T00:11:11;20.20;99.90
14099;DHT22;7126;48.458;7.930;2022-08-20T00:13:40;20.20;99.90
14099;DHT22;7126;48.458;7.930;2022-08-20T00:16:08;20.20;99.90
14099;DHT22;7126;48.458;7.930;2022-08-20T00:18:35;20.20;99.90
14099;DHT22;7126;48.458;7.930;2022-08-20T00:21:03;20.20;99.90
14099;DHT22;7126;48.458;7.930;2022-08-20T00:23:29;20.20;99.90
14099;DHT22;7126;48.458;7.930;2022-08-20T00:25:55;20.20;99.90
14099;DHT22;7126;48.458;7.930;2022-08-20T00:28:20;20.20;99.90
14099;DHT22;7126;48.458;7.930;2022-08-20T00:30:47;20.20;99.90
14099;DHT22;7126;48.458;7.930;2022-08-20T00:33:16;20.20;99.90
14099;DHT22;7126;48.458;7.930;2022-08-20T00:35:46;20.30;99.90
14099;DHT22;7126;48.458;7.930;2022-08-20T00:38:12;20.30;99.90
14099;DHT22;7126;48.458;7.930;2022-08-20T00:40:54;20.20;99.90
14099;DHT22;7126;48.458;7.930;2022-08-20T00:43:40;20.20;99.90
14099;DHT22;7126;48.458;7.930;2022-08-20T00:49:05;20.10;99.90
14099;DHT22;7126;48.458;7.930;2022-08-20T00:51:46;20.10;99.90
14099;DHT22;7126;48.458;7.930;2022-08-20T00:54:17;20.20;99.90
14099;DHT22;7126;48.458;7.930;2022-08-20T00:56:46;20.20;99.90
14099;DHT22;7126;48.458;7.930;2022-08-20T00:59:17;20.30;99.90
14099;DHT22;7126;48.458;7.930;2022-08-20T01:01:45;20.30;99.90
14099;DHT22;7126;48.458;7.930;2022-08-20T01:04:11;20.20;99.90
14099;DHT22;7126;48.458;7.930;2022-08-20T01:06:37;20.30;99.90
14099;DHT22;7126;48.458;7.930;2022-08-20T01:09:04;20.40;99.90
14099;DHT22;7126;48.458;7.930;2022-08-20T01:11:30;20.40;99.90
14099;DHT22;7126;48.458;7.930;2022-08-20T01:14:04;20.50;99.90
14099;DHT22;7126;48.458;7.930;2022-08-20T01:16:50;20.50;99.90
14099;DHT22;7126;48.458;7.930;2022-08-20T01:19:20;20.60;99.90
14099;DHT22;7126;48.458;7.930;2022-08-20T01:21:49;20.60;99.90
14099;DHT22;7126;48.458;7.930;2022-08-20T01:24:28;20.50;99.90
14099;DHT22;7126;48.458;7.930;2022-08-20T01:26:56;20.60;99.90
14099;DHT22;7126;48.458;7.930;2022-08-20T01:29:25;20.60;99.90
14099;DHT22;7126;48.458;7.930;2022-08-20T01:31:53;20.60;99.90
14099;DHT22;7126;48.458;7.930;2022-08-20T01:34:25;20.50;99.90
14099;DHT22;7126;48.458;7.930;2022-08-20T01:36:53;20.60;99.90
14099;DHT22;7126;48.458;7.930;2022-08-20T01:39:29;20.60;99.90
14099;DHT22;7126;48.458;7.930;2022-08-20T01:42:22;20.60;99.90
14099;DHT22;7126;48.458;7.930;2022-08-20T01:44:51;20.60;99.90
14099;DHT22;7126;48.458;7.930;2022-08-20T01:47:26;20.60;99.90
14099;DHT22;7126;48.458;7.930;2022-08-20T01:49:58;20.60;99.90
14099;DHT22;7126;48.458;7.930;2022-08-20T01:54:58;20.60;99.90
14099;DHT22;7126;48.458;7.930;2022-08-20T01:57:25;20.50;99.90
14099;DHT22;7126;48.458;7.930;2022-08-20T01:59:52;20.50;99.90
14099;DHT22;7126;48.458;7.930;2022-08-20T02:02:18;20.50;99.90
14099;DHT22;7126;48.458;7.930;2022-08-20T02:04:44;20.50;99.90
14099;DHT22;7126;48.458;7.930;2022-08-20T02:07:17;20.50;99.90
14099;DHT22;7126;48.458;7.930;2022-08-20T02:09:43;20.50;99.90
14099;DHT22;7126;48.458;7.930;2022-08-20T02:12:10;20.40;99.90
14099;DHT22;7126;48.458;7.930;2022-08-20T02:14:47;20.50;99.90
14099;DHT22;7126;48.458;7.930;2022-08-20T02:17:14;20.50;99.90
14099;DHT22;7126;48.458;7.930;2022-08-20T02:19:44;20.50;99.90
14099;DHT22;7126;48.458;7.930;2022-08-20T02:25:08;20.40;99.90
14099;DHT22;7126;48.458;7.930;2022-08-20T02:27:35;20.30;99.90
14099;DHT22;7126;48.458;7.930;2022-08-20T02:30:03;20.20;99.90
14099;DHT22;7126;48.458;7.930;2022-08-20T02:32:28;20.10;99.90
14099;DHT22;7126;48.458;7.930;2022-08-20T02:34:54;20.10;99.90
14099;DHT22;7126;48.458;7.930;2022-08-20T02:37:20;20.10;99.90
14099;DHT22;7126;48.458;7.930;2022-08-20T02:39:45;20.00;99.90
14099;DHT22;7126;48.458;7.930;2022-08-20T02:42:11;20.00;99.90
14099;DHT22;7126;48.458;7.930;2022-08-20T02:44:38;20.00;99.90
14099;DHT22;7126;48.458;7.930;2022-08-20T02:47:05;20.00;99.90
14099;DHT22;7126;48.458;7.930;2022-08-20T02:49:31;20.00;99.90
14099;DHT22;7126;48.458;7.930;2022-08-20T02:51:56;20.10;99.90
14099;DHT22;7126;48.458;7.930;2022-08-20T02:54:22;20.10;99.90
14099;DHT22;7126;48.458;7.930;2022-08-20T02:56:49;20.10;99.90
14099;DHT22;7126;48.458;7.930;2022-08-20T02:59:14;20.10;99.90
14099;DHT22;7126;48.458;7.930;2022-08-20T03:01:40;20.10;99.90
14099;DHT22;7126;48.458;7.930;2022-08-20T03:04:06;20.00;99.90
14099;DHT22;7126;48.458;7.930;2022-08-20T03:06:31;20.00;99.90
14099;DHT22;7126;48.458;7.930;2022-08-20T03:08:57;20.10;99.90
14099;DHT22;7126;48.458;7.930;2022-08-20T03:11:23;20.10;99.90
14099;DHT22;7126;48.458;7.930;2022-08-20T03:13:48;20.10;99.90
14099;DHT22;7126;48.458;7.930;2022-08-20T03:16:14;20.10;99.90
14099;DHT22;7126;48.458;7.930;2022-08-20T03:18:43;20.20;99.90
14099;DHT22;7126;48.458;7.930;2022-08-20T03:21:11;20.10;99.90
14099;DHT22;7126;48.458;7.930;2022-08-20T03:23:37;20.10;99.90
14099;DHT22;7126;48.458;7.930;2022-08-20T03:26:05;20.10;99.90
14099;DHT22;7126;48.458;7.930;2022-08-20T03:28:31;20.10;99.90
14099;DHT22;7126;48.458;7.930;2022-08-20T03:30:57;20.10;99.90
14099;DHT22;7126;48.458;7.930;2022-08-20T03:33:24;20.10;99.90
14099;DHT22;7126;48.458;7.930;2022-08-20T03:35:50;20.10;99.90
14099;DHT22;7126;48.458;7.930;2022-08-20T03:38:18;20.10;99.90
14099;DHT22;7126;48.458;7.930;2022-08-20T03:40:44;20.10;99.90
14099;DHT22;7126;48.458;7.930;2022-08-20T03:43:11;20.10;99.90
14099;DHT22;7126;48.458;7.930;2022-08-20T03:45:38;20.10;99.90
14099;DHT22;7126;48.458;7.930;2022-08-20T03:48:09;20.10;99.90
14099;DHT22;7126;48.458;7.930;2022-08-20T03:50:35;20.00;99.90
14099;DHT22;7126;48.458;7.930;2022-08-20T03:53:02;20.00;99.90
14099;DHT22;7126;48.458;7.930;2022-08-20T03:55:29;20.00;99.90
14099;DHT22;7126;48.458;7.930;2022-08-20T03:57:58;20.10;99.90
14099;DHT22;7126;48.458;7.930;2022-08-20T04:00:32;20.10;99.90
14099;DHT22;7126;48.458;7.930;2022-08-20T04:02:58;20.10;99.90
14099;DHT22;7126;48.458;7.930;2022-08-20T04:05:25;20.10;99.90
14099;DHT22;7126;48.458;7.930;2022-08-20T04:07:51;20.00;99.90
14099;DHT22;7126;48.458;7.930;2022-08-20T04:10:17;20.10;99.90
14099;DHT22;7126;48.458;7.930;2022-08-20T04:12:43;20.10;99.90
14099;DHT22;7126;48.458;7.930;2022-08-20T04:15:10;20.20;99.90
14099;DHT22;7126;48.458;7.930;2022-08-20T04:17:38;20.20;99.90
14099;DHT22;7126;48.458;7.930;2022-08-20T04:20:08;20.20;99.90
14099;DHT22;7126;48.458;7.930;2022-08-20T04:22:34;20.30;99.90
14099;DHT22;7126;48.458;7.930;2022-08-20T04:24:59;20.40;99.90
14099;DHT22;7126;48.458;7.930;2022-08-20T04:27:25;20.40;99.90
14099;DHT22;7126;48.458;7.930;2022-08-20T04:29:51;20.40;99.90
14099;DHT22;7126;48.458;7.930;2022-08-20T04:32:16;20.40;99.90
14099;DHT22;7126;48.458;7.930;2022-08-20T04:34:42;20.40;99.90
14099;DHT22;7126;48.458;7.930;2022-08-20T04:37:08;20.40;99.90
14099;DHT22;7126;48.458;7.930;2022-08-20T04:39:36;20.40;99.90
14099;DHT22;7126;48.458;7.930;2022-08-20T04:42:01;20.30;99.90
14099;DHT22;7126;48.458;7.930;2022-08-20T04:44:27;20.30;99.90
14099;DHT22;7126;48.458;7.930;2022-08-20T04:46:53;20.30;99.90
14099;DHT22;7126;48.458;7.930;2022-08-20T04:49:18;20.30;99.90
14099;DHT22;7126;48.458;7.930;2022-08-20T04:51:47;20.30;99.90
14099;DHT22;7126;48.458;7.930;2022-08-20T04:54:12;20.30;99.90
14099;DHT22;7126;48.458;7.930;2022-08-20T04:56:38;20.30;99.90
14099;DHT22;7126;48.458;7.930;2022-08-20T04:59:05;20.20;99.90
14099;DHT22;7126;48.458;7.930;2022-08-20T05:01:31;20.20;99.90
14099;DHT22;7126;48.458;7.930;2022-08-20T05:03:58;20.20;99.90
14099;DHT22;7126;48.458;7.930;2022-08-20T05:06:28;20.30;99.90
14099;DHT22;7126;48.458;7.930;2022-08-20T05:08:55;20.30;99.90
14099;DHT22;7126;48.458;7.930;2022-08-20T05:11:22;20.30;99.90
14099;DHT22;7126;48.458;7.930;2022-08-20T05:13:48;20.30;99.90
14099;DHT22;7126;48.458;7.930;2022-08-20T05:16:14;20.40;99.90
14099;DHT22;7126;48.458;7.930;2022-08-20T05:18:42;20.40;99.90
14099;DHT22;7126;48.458;7.930;2022-08-20T05:21:09;20.50;99.90
14099;DHT22;7126;48.458;7.930;2022-08-20T05:23:36;20.50;99.90
14099;DHT22;7126;48.458;7.930;2022-08-20T05:26:04;20.50;99.90
14099;DHT22;7126;48.458;7.930;2022-08-20T05:28:32;20.50;99.90
14099;DHT22;7126;48.458;7.930;2022-08-20T05:30:59;20.50;99.90
14099;DHT22;7126;48.458;7.930;2022-08-20T05:33:25;20.50;99.90
14099;DHT22;7126;48.458;7.930;2022-08-20T05:35:52;20.50;99.90
14099;DHT22;7126;48.458;7.930;2022-08-20T05:38:21;20.50;99.90
14099;DHT22;7126;48.458;7.930;2022-08-20T05:40:49;20.60;99.90
14099;DHT22;7126;48.458;7.930;2022-08-20T05:43:15;20.50;99.90
14099;DHT22;7126;48.458;7.930;2022-08-20T05:45:42;20.60;99.90
14099;DHT22;7126;48.458;7.930;2022-08-20T05:48:10;20.70;99.90
14099;DHT22;7126;48.458;7.930;2022-08-20T05:50:36;20.70;99.90
14099;DHT22;7126;48.458;7.930;2022-08-20T05:53:03;20.80;99.90
14099;DHT22;7126;48.458;7.930;2022-08-20T05:55:29;20.90;99.90
14099;DHT22;7126;48.458;7.930;2022-08-20T05:57:59;20.90;99.90
14099;DHT22;7126;48.458;7.930;2022-08-20T06:00:26;21.00;99.90
14099;DHT22;7126;48.458;7.930;2022-08-20T06:02:53;21.00;99.90
14099;DHT22;7126;48.458;7.930;2022-08-20T06:05:38;21.00;99.90
14099;DHT22;7126;48.458;7.930;2022-08-20T06:08:05;21.00;99.90
14099;DHT22;7126;48.458;7.930;2022-08-20T06:10:31;21.00;99.90
14099;DHT22;7126;48.458;7.930;2022-08-20T06:12:56;21.00;99.90
14099;DHT22;7126;48.458;7.930;2022-08-20T06:15:22;21.00;99.90
14099;DHT22;7126;48.458;7.930;2022-08-20T06:17:47;21.00;99.90
14099;DHT22;7126;48.458;7.930;2022-08-20T06:20:13;21.00;99.90
14099;DHT22;7126;48.458;7.930;2022-08-20T06:22:39;21.10;99.90
14099;DHT22;7126;48.458;7.930;2022-08-20T06:25:06;21.00;99.90
14099;DHT22;7126;48.458;7.930;2022-08-20T06:27:32;21.10;99.90
14099;DHT22;7126;48.458;7.930;2022-08-20T06:29:59;21.10;99.90
14099;DHT22;7126;48.458;7.930;2022-08-20T06:32:24;21.00;99.90
14099;DHT22;7126;48.458;7.930;2022-08-20T06:34:51;21.00;99.90
14099;DHT22;7126;48.458;7.930;2022-08-20T06:37:20;21.00;99.90
14099;DHT22;7126;48.458;7.930;2022-08-20T06:39:48;21.00;99.90
14099;DHT22;7126;48.458;7.930;2022-08-20T06:42:13;20.90;99.90
14099;DHT22;7126;48.458;7.930;2022-08-20T06:44:39;20.80;99.90
14099;DHT22;7126;48.458;7.930;2022-08-20T06:47:05;20.80;99.90
14099;DHT22;7126;48.458;7.930;2022-08-20T06:49:34;20.80;99.90
14099;DHT22;7126;48.458;7.930;2022-08-20T06:52:02;20.80;99.90
14099;DHT22;7126;48.458;7.930;2022-08-20T06:54:28;20.80;99.90
14099;DHT22;7126;48.458;7.930;2022-08-20T06:56:53;20.60;99.90
14099;DHT22;7126;48.458;7.930;2022-08-20T06:59:19;20.50;99.90
14099;DHT22;7126;48.458;7.930;2022-08-20T07:01:45;20.50;99.90
14099;DHT22;7126;48.458;7.930;2022-08-20T07:04:10;20.50;99.90
14099;DHT22;7126;48.458;7.930;2022-08-20T07:06:36;20.40;99.90
14099;DHT22;7126;48.458;7.930;2022-08-20T07:09:02;20.40;99.90
14099;DHT22;7126;48.458;7.930;2022-08-20T07:11:28;20.30;99.90
14099;DHT22;7126;48.458;7.930;2022-08-20T07:13:54;20.40;99.90
14099;DHT22;7126;48.458;7.930;2022-08-20T07:16:21;20.40;99.90
14099;DHT22;7126;48.458;7.930;2022-08-20T07:18:46;20.50;99.90
14099;DHT22;7126;48.458;7.930;2022-08-20T07:21:12;20.50;99.90
14099;DHT22;7126;48.458;7.930;2022-08-20T07:23:38;20.60;99.90
14099;DHT22;7126;48.458;7.930;2022-08-20T07:26:03;20.60;99.90
14099;DHT22;7126;48.458;7.930;2022-08-20T07:28:29;20.60;99.90
14099;DHT22;7126;48.458;7.930;2022-08-20T07:30:57;20.60;99.90
14099;DHT22;7126;48.458;7.930;2022-08-20T07:33:42;20.50;99.90
14099;DHT22;7126;48.458;7.930;2022-08-20T07:36:08;20.60;99.90
14099;DHT22;7126;48.458;7.930;2022-08-20T07:38:35;20.50;99.90
14099;DHT22;7126;48.458;7.930;2022-08-20T07:41:06;20.50;99.90
14099;DHT22;7126;48.458;7.930;2022-08-20T07:43:33;20.40;99.90
14099;DHT22;7126;48.458;7.930;2022-08-20T07:46:00;20.30;99.90
14099;DHT22;7126;48.458;7.930;2022-08-20T07:48:29;20.30;99.90
14099;DHT22;7126;48.458;7.930;2022-08-20T07:50:59;20.40;99.90
14099;DHT22;7126;48.458;7.930;2022-08-20T07:53:25;20.40;99.90
14099;DHT22;7126;48.458;7.930;2022-08-20T07:55:52;20.40;99.90
14099;DHT22;7126;48.458;7.930;2022-08-20T07:58:20;20.40;99.90
14099;DHT22;7126;48.458;7.930;2022-08-20T08:00:46;20.40;99.90
14099;DHT22;7126;48.458;7.930;2022-08-20T08:03:12;20.50;99.90
14099;DHT22;7126;48.458;7.930;2022-08-20T08:05:42;20.60;99.90
14099;DHT22;7126;48.458;7.930;2022-08-20T08:08:12;20.70;99.90
14099;DHT22;7126;48.458;7.930;2022-08-20T08:10:40;20.70;99.90
14099;DHT22;7126;48.458;7.930;2022-08-20T08:13:08;20.70;99.90
14099;DHT22;7126;48.458;7.930;2022-08-20T08:15:39;20.70;99.90
14099;DHT22;7126;48.458;7.930;2022-08-20T08:18:08;20.70;99.90
14099;DHT22;7126;48.458;7.930;2022-08-20T08:20:39;20.60;99.90
14099;DHT22;7126;48.458;7.930;2022-08-20T08:23:07;20.60;99.90
14099;DHT22;7126;48.458;7.930;2022-08-20T08:25:33;20.60;99.90
14099;DHT22;7126;48.458;7.930;2022-08-20T08:27:58;20.60;99.90
14099;DHT22;7126;48.458;7.930;2022-08-20T08:30:26;20.50;99.90
14099;DHT22;7126;48.458;7.930;2022-08-20T08:32:53;20.50;99.90
14099;DHT22;7126;48.458;7.930;2022-08-20T08:35:38;20.50;99.90
14099;DHT22;7126;48.458;7.930;2022-08-20T08:38:04;20.50;99.90
14099;DHT22;7126;48.458;7.930;2022-08-20T08:40:30;20.50;99.90
14099;DHT22;7126;48.458;7.930;2022-08-20T08:42:59;20.50;99.90
14099;DHT22;7126;48.458;7.930;2022-08-20T08:45:37;20.50;99.90
14099;DHT22;7126;48.458;7.930;2022-08-20T08:48:09;20.50;99.90
14099;DHT22;7126;48.458;7.930;2022-08-20T08:50:36;20.50;99.90
14099;DHT22;7126;48.458;7.930;2022-08-20T08:53:03;20.60;99.90
14099;DHT22;7126;48.458;7.930;2022-08-20T08:55:31;20.60;99.90
14099;DHT22;7126;48.458;7.930;2022-08-20T08:58:00;20.70;99.90
14099;DHT22;7126;48.458;7.930;2022-08-20T09:00:26;20.70;99.90
14099;DHT22;7126;48.458;7.930;2022-08-20T09:03:05;20.70;99.90
14099;DHT22;7126;48.458;7.930;2022-08-20T09:05:53;20.70;99.90
14099;DHT22;7126;48.458;7.930;2022-08-20T09:08:24;20.80;99.90
14099;DHT22;7126;48.458;7.930;2022-08-20T09:10:50;20.80;99.90
14099;DHT22;7126;48.458;7.930;2022-08-20T09:13:16;20.80;99.90
14099;DHT22;7126;48.458;7.930;2022-08-20T09:15:41;20.80;99.90
14099;DHT22;7126;48.458;7.930;2022-08-20T09:18:07;20.90;99.90
14099;DHT22;7126;48.458;7.930;2022-08-20T09:20:34;20.90;99.90
14099;DHT22;7126;48.458;7.930;2022-08-20T09:22:59;20.90;99.90
14099;DHT22;7126;48.458;7.930;2022-08-20T09:25:25;21.00;99.90
14099;DHT22;7126;48.458;7.930;2022-08-20T09:27:51;21.10;99.90
14099;DHT22;7126;48.458;7.930;2022-08-20T09:30:17;21.20;99.90
14099;DHT22;7126;48.458;7.930;2022-08-20T09:32:43;21.10;99.90
14099;DHT22;7126;48.458;7.930;2022-08-20T09:35:09;21.00;99.90
14099;DHT22;7126;48.458;7.930;2022-08-20T09:37:35;21.10;99.90
14099;DHT22;7126;48.458;7.930;2022-08-20T09:40:01;21.30;99.90
14099;DHT22;7126;48.458;7.930;2022-08-20T09:42:29;21.40;99.90
14099;DHT22;7126;48.458;7.930;2022-08-20T09:44:56;21.40;99.90
14099;DHT22;7126;48.458;7.930;2022-08-20T09:47:21;21.50;99.90
14099;DHT22;7126;48.458;7.930;2022-08-20T09:49:47;21.40;99.90
14099;DHT22;7126;48.458;7.930;2022-08-20T09:52:23;21.40;99.90
14099;DHT22;7126;48.458;7.930;2022-08-20T09:54:51;21.60;99.90
14099;DHT22;7126;48.458;7.930;2022-08-20T09:57:19;21.70;99.90
14099;DHT22;7126;48.458;7.930;2022-08-20T09:59:48;21.80;99.90
14099;DHT22;7126;48.458;7.930;2022-08-20T10:02:15;21.80;99.90
14099;DHT22;7126;48.458;7.930;2022-08-20T10:04:41;21.80;99.90
14099;DHT22;7126;48.458;7.930;2022-08-20T10:07:07;21.80;99.90
14099;DHT22;7126;48.458;7.930;2022-08-20T10:09:33;21.90;99.90
14099;DHT22;7126;48.458;7.930;2022-08-20T10:12:00;21.80;99.90
14099;DHT22;7126;48.458;7.930;2022-08-20T10:14:25;21.70;99.90
14099;DHT22;7126;48.458;7.930;2022-08-20T10:16:59;21.70;99.90
14099;DHT22;7126;48.458;7.930;2022-08-20T10:19:26;21.70;99.90
14099;DHT22;7126;48.458;7.930;2022-08-20T10:21:52;21.70;99.90
14099;DHT22;7126;48.458;7.930;2022-08-20T10:24:19;21.60;99.90
14099;DHT22;7126;48.458;7.930;2022-08-20T10:26:45;21.50;99.90
14099;DHT22;7126;48.458;7.930;2022-08-20T10:29:12;21.50;99.90
14099;DHT22;7126;48.458;7.930;2022-08-20T10:31:37;21.50;99.90
14099;DHT22;7126;48.458;7.930;2022-08-20T10:34:03;21.50;99.90
14099;DHT22;7126;48.458;7.930;2022-08-20T10:36:29;21.40;99.90
14099;DHT22;7126;48.458;7.930;2022-08-20T10:38:54;21.30;99.90
14099;DHT22;7126;48.458;7.930;2022-08-20T10:41:20;21.30;99.90
14099;DHT22;7126;48.458;7.930;2022-08-20T10:43:46;21.40;99.90
14099;DHT22;7126;48.458;7.930;2022-08-20T10:46:11;21.50;99.90
14099;DHT22;7126;48.458;7.930;2022-08-20T10:48:37;21.60;99.90
14099;DHT22;7126;48.458;7.930;2022-08-20T10:51:03;21.60;99.90
14099;DHT22;7126;48.458;7.930;2022-08-20T10:53:29;21.60;99.90
14099;DHT22;7126;48.458;7.930;2022-08-20T10:55:56;21.70;99.90
14099;DHT22;7126;48.458;7.930;2022-08-20T10:58:22;21.80;99.90
14099;DHT22;7126;48.458;7.930;2022-08-20T11:00:48;21.90;99.90
14099;DHT22;7126;48.458;7.930;2022-08-20T11:03:14;22.00;99.90
14099;DHT22;7126;48.458;7.930;2022-08-20T11:05:39;22.20;99.90
14099;DHT22;7126;48.458;7.930;2022-08-20T11:08:05;22.20;99.90
14099;DHT22;7126;48.458;7.930;2022-08-20T11:10:32;22.30;99.90
14099;DHT22;7126;48.458;7.930;2022-08-20T11:12:59;22.40;99.90
14099;DHT22;7126;48.458;7.930;2022-08-20T11:15:25;22.60;99.90
14099;DHT22;7126;48.458;7.930;2022-08-20T11:17:51;22.70;99.90
14099;DHT22;7126;48.458;7.930;2022-08-20T11:20:19;22.90;99.90
14099;DHT22;7126;48.458;7.930;2022-08-20T11:22:45;23.40;99.90
14099;DHT22;7126;48.458;7.930;2022-08-20T11:25:11;23.80;99.90
14099;DHT22;7126;48.458;7.930;2022-08-20T11:27:40;24.00;99.90
14099;DHT22;7126;48.458;7.930;2022-08-20T11:30:09;24.20;99.90
14099;DHT22;7126;48.458;7.930;2022-08-20T11:32:35;24.20;99.90
14099;DHT22;7126;48.458;7.930;2022-08-20T11:35:01;24.20;99.90
14099;DHT22;7126;48.458;7.930;2022-08-20T11:37:27;24.30;99.90
14099;DHT22;7126;48.458;7.930;2022-08-20T11:39:53;24.40;99.90
14099;DHT22;7126;48.458;7.930;2022-08-20T11:42:19;24.40;99.90
14099;DHT22;7126;48.458;7.930;2022-08-20T11:44:45;24.40;99.90
14099;DHT22;7126;48.458;7.930;2022-08-20T11:47:21;24.70;99.90
14099;DHT22;7126;48.458;7.930;2022-08-20T11:49:46;24.90;99.90
14099;DHT22;7126;48.458;7.930;2022-08-20T11:52:20;24.90;99.90
14099;DHT22;7126;48.458;7.930;2022-08-20T11:54:45;24.70;99.90
14099;DHT22;7126;48.458;7.930;2022-08-20T11:57:11;24.50;99.90
14099;DHT22;7126;48.458;7.930;2022-08-20T11:59:37;24.60;99.90
14099;DHT22;7126;48.458;7.930;2022-08-20T12:02:02;24.60;99.90
14099;DHT22;7126;48.458;7.930;2022-08-20T12:04:28;24.50;99.90
14099;DHT22;7126;48.458;7.930;2022-08-20T12:06:54;24.30;99.90
14099;DHT22;7126;48.458;7.930;2022-08-20T12:09:19;24.00;99.90
14099;DHT22;7126;48.458;7.930;2022-08-20T12:11:45;23.80;99.90
14099;DHT22;7126;48.458;7.930;2022-08-20T12:14:11;23.60;99.90
14099;DHT22;7126;48.458;7.930;2022-08-20T12:16:36;23.50;99.90
14099;DHT22;7126;48.458;7.930;2022-08-20T12:19:03;23.30;99.90
14099;DHT22;7126;48.458;7.930;2022-08-20T12:21:28;23.30;99.90
14099;DHT22;7126;48.458;7.930;2022-08-20T12:23:54;23.30;99.90
14099;DHT22;7126;48.458;7.930;2022-08-20T12:26:19;23.40;99.90
14099;DHT22;7126;48.458;7.930;2022-08-20T12:28:45;23.90;99.90
14099;DHT22;7126;48.458;7.930;2022-08-20T12:31:10;24.40;99.90
14099;DHT22;7126;48.458;7.930;2022-08-20T12:33:36;24.70;99.90
14099;DHT22;7126;48.458;7.930;2022-08-20T12:36:02;25.10;99.90
14099;DHT22;7126;48.458;7.930;2022-08-20T12:38:27;25.40;99.90
14099;DHT22;7126;48.458;7.930;2022-08-20T12:40:53;25.70;99.90
14099;DHT22;7126;48.458;7.930;2022-08-20T12:43:19;26.00;99.90
14099;DHT22;7126;48.458;7.930;2022-08-20T12:45:44;26.20;99.90
14099;DHT22;7126;48.458;7.930;2022-08-20T12:48:11;26.40;99.90
14099;DHT22;7126;48.458;7.930;2022-08-20T12:50:39;26.30;99.90
14099;DHT22;7126;48.458;7.930;2022-08-20T12:53:05;26.00;99.90
14099;DHT22;7126;48.458;7.930;2022-08-20T12:55:32;25.80;99.90
14099;DHT22;7126;48.458;7.930;2022-08-20T12:57:59;25.60;99.90
14099;DHT22;7126;48.458;7.930;2022-08-20T13:02:55;25.90;99.90
14099;DHT22;7126;48.458;7.930;2022-08-20T13:05:21;26.20;99.90
14099;DHT22;7126;48.458;7.930;2022-08-20T13:07:47;26.40;99.90
14099;DHT22;7126;48.458;7.930;2022-08-20T13:10:19;26.40;99.90
14099;DHT22;7126;48.458;7.930;2022-08-20T13:12:45;26.10;99.90
14099;DHT22;7126;48.458;7.930;2022-08-20T13:15:11;25.90;99.90
14099;DHT22;7126;48.458;7.930;2022-08-20T13:17:37;26.00;99.90
14099;DHT22;7126;48.458;7.930;2022-08-20T13:20:05;26.00;99.90
14099;DHT22;7126;48.458;7.930;2022-08-20T13:22:30;25.80;99.90
14099;DHT22;7126;48.458;7.930;2022-08-20T13:24:56;25.70;99.90
14099;DHT22;7126;48.458;7.930;2022-08-20T13:27:21;25.50;99.90
14099;DHT22;7126;48.458;7.930;2022-08-20T13:29:53;25.40;99.90
14099;DHT22;7126;48.458;7.930;2022-08-20T13:32:20;25.20;99.90
14099;DHT22;7126;48.458;7.930;2022-08-20T13:34:46;25.20;99.90
14099;DHT22;7126;48.458;7.930;2022-08-20T13:37:31;25.30;99.90
14099;DHT22;7126;48.458;7.930;2022-08-20T13:39:57;25.60;99.90
14099;DHT22;7126;48.458;7.930;2022-08-20T13:42:25;25.60;99.90
14099;DHT22;7126;48.458;7.930;2022-08-20T13:44:50;25.50;99.90
14099;DHT22;7126;48.458;7.930;2022-08-20T13:47:22;25.30;99.90
14099;DHT22;7126;48.458;7.930;2022-08-20T13:49:55;25.20;99.90
14099;DHT22;7126;48.458;7.930;2022-08-20T13:52:22;25.00;99.90
14099;DHT22;7126;48.458;7.930;2022-08-20T13:54:48;24.90;99.90
14099;DHT22;7126;48.458;7.930;2022-08-20T13:57:15;24.80;99.90
14099;DHT22;7126;48.458;7.930;2022-08-20T13:59:47;24.80;99.90
14099;DHT22;7126;48.458;7.930;2022-08-20T14:02:14;24.80;99.90
14099;DHT22;7126;48.458;7.930;2022-08-20T14:04:40;25.20;99.90
14099;DHT22;7126;48.458;7.930;2022-08-20T14:07:16;25.60;99.90
14099;DHT22;7126;48.458;7.930;2022-08-20T14:09:44;26.00;99.90
14099;DHT22;7126;48.458;7.930;2022-08-20T14:12:11;26.30;99.90
14099;DHT22;7126;48.458;7.930;2022-08-20T14:14:38;26.20;99.90
14099;DHT22;7126;48.458;7.930;2022-08-20T14:17:21;26.20;99.90
14099;DHT22;7126;48.458;7.930;2022-08-20T14:19:50;26.30;99.90
14099;DHT22;7126;48.458;7.930;2022-08-20T14:22:16;26.10;99.90
14099;DHT22;7126;48.458;7.930;2022-08-20T14:24:43;25.90;99.90
14099;DHT22;7126;48.458;7.930;2022-08-20T14:27:09;25.70;99.90
14099;DHT22;7126;48.458;7.930;2022-08-20T14:29:37;25.70;99.90
14099;DHT22;7126;48.458;7.930;2022-08-20T14:32:04;25.90;99.90
14099;DHT22;7126;48.458;7.930;2022-08-20T14:34:30;26.10;99.90
14099;DHT22;7126;48.458;7.930;2022-08-20T14:36:56;26.10;99.90
14099;DHT22;7126;48.458;7.930;2022-08-20T14:39:33;26.10;99.90
14099;DHT22;7126;48.458;7.930;2022-08-20T14:41:58;26.30;99.90
14099;DHT22;7126;48.458;7.930;2022-08-20T14:44:24;26.50;99.90
14099;DHT22;7126;48.458;7.930;2022-08-20T14:46:49;26.70;99.90
14099;DHT22;7126;48.458;7.930;2022-08-20T14:49:15;26.60;99.90
14099;DHT22;7126;48.458;7.930;2022-08-20T14:51:40;26.60;99.90
14099;DHT22;7126;48.458;7.930;2022-08-20T14:54:06;26.70;99.90
14099;DHT22;7126;48.458;7.930;2022-08-20T14:56:31;26.80;99.90
14099;DHT22;7126;48.458;7.930;2022-08-20T14:58:57;27.00;99.90
14099;DHT22;7126;48.458;7.930;2022-08-20T15:01:22;27.00;99.90
14099;DHT22;7126;48.458;7.930;2022-08-20T15:03:48;27.00;99.90
14099;DHT22;7126;48.458;7.930;2022-08-20T15:06:14;27.10;99.90
14099;DHT22;7126;48.458;7.930;2022-08-20T15:08:39;27.20;99.90
14099;DHT22;7126;48.458;7.930;2022-08-20T15:11:05;27.20;99.90
14099;DHT22;7126;48.458;7.930;2022-08-20T15:13:31;27.30;99.90
14099;DHT22;7126;48.458;7.930;2022-08-20T15:15:57;27.30;99.90
14099;DHT22;7126;48.458;7.930;2022-08-20T15:18:23;27.30;99.90
14099;DHT22;7126;48.458;7.930;2022-08-20T15:20:49;27.30;99.90
14099;DHT22;7126;48.458;7.930;2022-08-20T15:23:15;27.30;99.90
14099;DHT22;7126;48.458;7.930;2022-08-20T15:25:40;27.30;99.90
14099;DHT22;7126;48.458;7.930;2022-08-20T15:28:08;27.30;99.90
14099;DHT22;7126;48.458;7.930;2022-08-20T15:30:35;27.40;99.90
14099;DHT22;7126;48.458;7.930;2022-08-20T15:33:01;27.30;99.90
14099;DHT22;7126;48.458;7.930;2022-08-20T15:35:27;27.40;99.90
14099;DHT22;7126;48.458;7.930;2022-08-20T15:37:55;27.30;99.90
14099;DHT22;7126;48.458;7.930;2022-08-20T15:40:22;27.30;99.90
14099;DHT22;7126;48.458;7.930;2022-08-20T15:42:48;27.30;99.90
14099;DHT22;7126;48.458;7.930;2022-08-20T15:45:15;27.30;99.90
14099;DHT22;7126;48.458;7.930;2022-08-20T15:47:48;27.20;99.90
14099;DHT22;7126;48.458;7.930;2022-08-20T15:53:02;27.30;99.90
14099;DHT22;7126;48.458;7.930;2022-08-20T15:55:30;27.30;99.90
14099;DHT22;7126;48.458;7.930;2022-08-20T15:58:23;27.20;99.90
14099;DHT22;7126;48.458;7.930;2022-08-20T16:01:05;27.20;99.90